Hundvaag 1 weather for Feb 2007
Month no. 236
Obs.
Da.
Temp. Dew Point Precip. Wind
Speed
Wind gusts Cloud cover Press. Humidity Wind dir. Sunny OPT
01.02.2007 5,3   0,6 6,4   0 1018,5 83,0 135,0   57,5 %
02.02.2007 7,5   3,5 6,4   1 1017,5 90,0 112,5 1 60,0 %
03.02.2007 5,5   13,0 9,7   1 1027,0 88,0 202,5   47,5 %
04.02.2007 6,7   3,5 29,0   1 1024,9 90,0 157,5   42,5 %
05.02.2007 2,5   2,7 8,0   1 1008,0 75,0 202,5 1 55,0 %
06.02.2007 0,8   11,5 17,7   1 997,2 87,0 202,5   40,0 %
07.02.2007 -0,6   0,9 6,4   3 1003,3 67,0 292,5 1 57,5 %
08.02.2007 -3,4   0,0 12,9   10 1002,9 68,0 22,5 1 67,5 %
09.02.2007 0,2   0,0 6,4   1 1010,7 65,0 315,0 1 55,0 %
10.02.2007 -3,9   0,0 3,2   10 1017,5 52,0 157,5 1 75,0 %
11.02.2007 -4,0   0,0 17,7   10 1010,0 62,0 112,5 1 65,0 %
12.02.2007 1,2   0,0 17,7   2 995,5 61,0 67,5   50,0 %
13.02.2007 2,0   0,0 3,2   1 999,9 70,0 90,0   57,5 %
14.02.2007 2,8   0,0 8,0   1 1004,3 67,0 202,5   55,0 %
15.02.2007 4,4   2,5 19,3   1 1013,4 76,0 337,5 1 47,5 %
16.02.2007 5,4   0,2 43,4   2 1015,8 67,0 337,5   40,0 %
17.02.2007 4,7   3,0 20,9   2 1013,1 81,0 45,0   47,5 %
18.02.2007 5,2   7,0 3,2   7 1013,4 87,0 157,5 1 72,5 %
19.02.2007 3,1   0,1 1,6   2 1013,4 87,0 270,0   62,5 %
20.02.2007 3,1   0,0 1,6   0 1009,7 83,0 247,5   57,5 %
21.02.2007 -2,7   3,5 38,6   1 1012,4 64,0 337,5   25,0 %
22.02.2007 -3,0   0,0 11,3   2 1012,8 48,0 90,0 1 47,5 %
23.02.2007 -1,4   0,0 41,8   1 1008,4 63,0 157,5   30,0 %
24.02.2007 1,2   0,0 32,2   1 1004,6 60,0 337,5   37,5 %
25.02.2007 1,8   0,0 24,1   0 996,2 63,0 67,5   40,0 %
26.02.2007 2,2   2,5 4,8   1 1002,9 82,0 292,5   55,0 %
27.02.2007 2,0   4,0 8,0   7 1006,3 79,0 22,5 1 65,0 %
28.02.2007 3,5   0,0 29,0   3 978,6 67,0 180,0 1 47,5 %
                       
                       
                       
Avrg/Sum 1,9   58,5 15,4   2,6 1008,5 72,6 184,0 12 52,1 %